sensor_id;sensor_type;location;lat;lon;timestamp;pressure;altitude;pressure_sealevel;temperature;humidity
45129;BME280;35512;56.312;101.728;2023-02-10T00:00:00;96109.13;;;-17.08;79.16
45129;BME280;35512;56.312;101.728;2023-02-10T00:02:33;96116.50;;;-17.05;78.92
45129;BME280;35512;56.312;101.728;2023-02-10T00:05:03;96129.63;;;-17.00;78.97
45129;BME280;35512;56.312;101.728;2023-02-10T00:07:32;96124.63;;;-17.08;78.98
45129;BME280;35512;56.312;101.728;2023-02-10T00:10:01;96117.84;;;-17.23;78.92
45129;BME280;35512;56.312;101.728;2023-02-10T00:12:30;96074.47;;;-17.54;79.16
45129;BME280;35512;56.312;101.728;2023-02-10T00:14:59;96123.81;;;-17.22;79.08
45129;BME280;35512;56.312;101.728;2023-02-10T00:17:30;96111.25;;;-17.32;79.02
45129;BME280;35512;56.312;101.728;2023-02-10T00:19:59;96132.53;;;-17.23;79.09
45129;BME280;35512;56.312;101.728;2023-02-10T00:22:30;96143.69;;;-17.16;79.16
45129;BME280;35512;56.312;101.728;2023-02-10T00:24:59;96167.31;;;-17.12;79.19
45129;BME280;35512;56.312;101.728;2023-02-10T00:27:29;96148.59;;;-17.28;79.09
45129;BME280;35512;56.312;101.728;2023-02-10T00:29:59;96164.28;;;-17.29;79.15
45129;BME280;35512;56.312;101.728;2023-02-10T00:32:31;96151.53;;;-17.44;79.09
45129;BME280;35512;56.312;101.728;2023-02-10T00:35:00;96161.53;;;-17.28;79.15
45129;BME280;35512;56.312;101.728;2023-02-10T00:37:30;96153.31;;;-17.38;79.06
45129;BME280;35512;56.312;101.728;2023-02-10T00:39:59;96188.56;;;-17.17;78.99
45129;BME280;35512;56.312;101.728;2023-02-10T00:42:30;96142.38;;;-17.47;78.95
45129;BME280;35512;56.312;101.728;2023-02-10T00:45:06;96185.75;;;-17.22;78.91
45129;BME280;35512;56.312;101.728;2023-02-10T00:47:35;96182.19;;;-17.21;79.01
45129;BME280;35512;56.312;101.728;2023-02-10T00:50:05;96167.44;;;-17.34;78.91
45129;BME280;35512;56.312;101.728;2023-02-10T00:52:34;96169.84;;;-17.32;79.08
45129;BME280;35512;56.312;101.728;2023-02-10T00:55:04;96178.41;;;-17.25;79.16
45129;BME280;35512;56.312;101.728;2023-02-10T00:57:33;96191.53;;;-17.20;79.33
45129;BME280;35512;56.312;101.728;2023-02-10T01:00:03;96204.66;;;-17.15;78.76
45129;BME280;35512;56.312;101.728;2023-02-10T01:02:34;96199.69;;;-17.16;79.06
45129;BME280;35512;56.312;101.728;2023-02-10T01:05:03;96208.44;;;-17.11;78.80
45129;BME280;35512;56.312;101.728;2023-02-10T01:07:32;96174.00;;;-17.31;78.95
45129;BME280;35512;56.312;101.728;2023-02-10T01:10:01;96165.06;;;-17.36;78.89
45129;BME280;35512;56.312;101.728;2023-02-10T01:12:30;96163.44;;;-17.37;78.97
45129;BME280;35512;56.312;101.728;2023-02-10T01:14:59;96195.38;;;-17.09;78.97
45129;BME280;35512;56.312;101.728;2023-02-10T01:17:30;96202.78;;;-16.93;79.04
45129;BME280;35512;56.312;101.728;2023-02-10T01:19:59;96183.09;;;-16.94;79.00
45129;BME280;35512;56.312;101.728;2023-02-10T01:22:34;96175.75;;;-16.90;79.09
45129;BME280;35512;56.312;101.728;2023-02-10T01:25:05;96184.88;;;-16.81;78.99
45129;BME280;35512;56.312;101.728;2023-02-10T01:27:34;96197.84;;;-16.61;78.79
45129;BME280;35512;56.312;101.728;2023-02-10T01:30:03;96155.66;;;-16.81;78.99
45129;BME280;35512;56.312;101.728;2023-02-10T01:32:32;96182.94;;;-16.52;79.07
45129;BME280;35512;56.312;101.728;2023-02-10T01:35:04;96168.25;;;-16.52;79.01
45129;BME280;35512;56.312;101.728;2023-02-10T01:37:33;96221.97;;;-16.07;78.71
45129;BME280;35512;56.312;101.728;2023-02-10T01:40:05;96166.88;;;-16.21;78.85
45129;BME280;35512;56.312;101.728;2023-02-10T01:42:34;96191.59;;;-15.46;79.23
45129;BME280;35512;56.312;101.728;2023-02-10T01:47:46;96212.03;;;-13.58;78.64
45129;BME280;35512;56.312;101.728;2023-02-10T01:50:18;96223.53;;;-12.73;78.50
45129;BME280;35512;56.312;101.728;2023-02-10T01:52:53;96209.56;;;-12.18;77.76
45129;BME280;35512;56.312;101.728;2023-02-10T01:55:26;96215.28;;;-11.62;77.21
45129;BME280;35512;56.312;101.728;2023-02-10T01:57:57;96228.75;;;-11.06;76.87
45129;BME280;35512;56.312;101.728;2023-02-10T02:00:27;96196.59;;;-10.82;76.20
45129;BME280;35512;56.312;101.728;2023-02-10T02:02:58;96199.59;;;-10.33;76.07
45129;BME280;35512;56.312;101.728;2023-02-10T02:05:34;96239.63;;;-9.81;75.66
45129;BME280;35512;56.312;101.728;2023-02-10T02:08:06;96234.16;;;-9.63;75.94
45129;BME280;35512;56.312;101.728;2023-02-10T02:19:16;96222.53;;;-8.27;75.15
45129;BME280;35512;56.312;101.728;2023-02-10T02:30:43;96253.03;;;-5.92;73.83
45129;BME280;35512;56.312;101.728;2023-02-10T02:33:24;96248.09;;;-5.47;73.21
45129;BME280;35512;56.312;101.728;2023-02-10T02:36:06;96253.59;;;-4.97;73.06
45129;BME280;35512;56.312;101.728;2023-02-10T02:38:40;96236.91;;;-4.62;73.04
45129;BME280;35512;56.312;101.728;2023-02-10T02:41:10;96261.16;;;-3.99;72.05
45129;BME280;35512;56.312;101.728;2023-02-10T02:43:40;96242.84;;;-3.80;71.91
45129;BME280;35512;56.312;101.728;2023-02-10T02:46:27;96255.03;;;-3.50;71.16
45129;BME280;35512;56.312;101.728;2023-02-10T02:49:08;96277.47;;;-3.18;70.85
45129;BME280;35512;56.312;101.728;2023-02-10T02:55:12;96282.28;;;-3.60;70.32
45129;BME280;35512;56.312;101.728;2023-02-10T02:58:00;96268.13;;;-3.74;70.36
45129;BME280;35512;56.312;101.728;2023-02-10T03:00:33;96269.47;;;-3.82;70.63
45129;BME280;35512;56.312;101.728;2023-02-10T03:03:05;96257.84;;;-3.81;70.52
45129;BME280;35512;56.312;101.728;2023-02-10T03:05:34;96298.66;;;-3.23;70.83
45129;BME280;35512;56.312;101.728;2023-02-10T03:08:03;96246.09;;;-3.25;70.01
45129;BME280;35512;56.312;101.728;2023-02-10T03:10:32;96275.03;;;-2.80;69.86
45129;BME280;35512;56.312;101.728;2023-02-10T03:13:01;96297.34;;;-2.62;69.87
45129;BME280;35512;56.312;101.728;2023-02-10T03:15:30;96271.97;;;-2.63;69.32
45129;BME280;35512;56.312;101.728;2023-02-10T03:17:59;96241.75;;;-2.57;69.62
45129;BME280;35512;56.312;101.728;2023-02-10T03:20:28;96271.53;;;-2.02;69.59
45129;BME280;35512;56.312;101.728;2023-02-10T03:22:57;96275.91;;;-1.55;69.59
45129;BME280;35512;56.312;101.728;2023-02-10T03:25:25;96281.38;;;-1.13;68.86
45129;BME280;35512;56.312;101.728;2023-02-10T03:27:55;96270.06;;;-0.72;68.79
45129;BME280;35512;56.312;101.728;2023-02-10T03:30:24;96289.16;;;-0.42;68.25
45129;BME280;35512;56.312;101.728;2023-02-10T03:32:54;96301.44;;;-0.18;68.50
45129;BME280;35512;56.312;101.728;2023-02-10T03:35:23;96282.94;;;-0.23;67.94
45129;BME280;35512;56.312;101.728;2023-02-10T03:37:52;96301.88;;;0.26;68.74
45129;BME280;35512;56.312;101.728;2023-02-10T03:40:22;96309.94;;;0.71;68.27
45129;BME280;35512;56.312;101.728;2023-02-10T03:42:51;96318.84;;;1.12;68.00
45129;BME280;35512;56.312;101.728;2023-02-10T03:45:20;96317.53;;;1.32;67.77
45129;BME280;35512;56.312;101.728;2023-02-10T03:47:49;96305.63;;;1.29;67.60
45129;BME280;35512;56.312;101.728;2023-02-10T03:50:18;96316.03;;;1.40;67.60
45129;BME280;35512;56.312;101.728;2023-02-10T03:52:47;96324.13;;;1.34;67.71
45129;BME280;35512;56.312;101.728;2023-02-10T03:55:18;96306.38;;;1.21;68.19
45129;BME280;35512;56.312;101.728;2023-02-10T03:57:47;96329.63;;;1.69;68.25
45129;BME280;35512;56.312;101.728;2023-02-10T04:00:17;96335.75;;;2.10;67.83
45129;BME280;35512;56.312;101.728;2023-02-10T04:02:46;96319.94;;;2.23;67.92
45129;BME280;35512;56.312;101.728;2023-02-10T04:05:16;96303.50;;;2.29;67.85
45129;BME280;35512;56.312;101.728;2023-02-10T04:07:45;96335.69;;;2.85;68.07
45129;BME280;35512;56.312;101.728;2023-02-10T04:10:14;96322.81;;;2.96;67.30
45129;BME280;35512;56.312;101.728;2023-02-10T04:12:43;96309.31;;;3.10;67.43
45129;BME280;35512;56.312;101.728;2023-02-10T04:15:11;96317.75;;;3.30;67.16
45129;BME280;35512;56.312;101.728;2023-02-10T04:17:40;96341.22;;;3.71;66.79
45129;BME280;35512;56.312;101.728;2023-02-10T04:20:10;96321.03;;;3.83;66.64
45129;BME280;35512;56.312;101.728;2023-02-10T04:22:39;96327.44;;;4.29;66.30
45129;BME280;35512;56.312;101.728;2023-02-10T04:25:11;96327.47;;;4.71;65.89
45129;BME280;35512;56.312;101.728;2023-02-10T04:27:40;96369.16;;;5.15;65.57
45129;BME280;35512;56.312;101.728;2023-02-10T04:30:09;96341.63;;;4.93;65.11
45129;BME280;35512;56.312;101.728;2023-02-10T04:32:38;96331.06;;;4.76;65.30
45129;BME280;35512;56.312;101.728;2023-02-10T04:35:07;96358.78;;;5.13;65.14
45129;BME280;35512;56.312;101.728;2023-02-10T04:37:37;96341.34;;;5.07;64.64
45129;BME280;35512;56.312;101.728;2023-02-10T04:40:06;96337.38;;;4.92;64.61
45129;BME280;35512;56.312;101.728;2023-02-10T04:42:35;96334.75;;;5.04;65.04
45129;BME280;35512;56.312;101.728;2023-02-10T04:45:07;96354.38;;;5.51;64.46
45129;BME280;35512;56.312;101.728;2023-02-10T04:47:36;96349.34;;;5.62;65.37
45129;BME280;35512;56.312;101.728;2023-02-10T04:50:05;96354.09;;;5.77;65.74
45129;BME280;35512;56.312;101.728;2023-02-10T04:52:34;96350.53;;;5.85;66.21
45129;BME280;35512;56.312;101.728;2023-02-10T04:55:03;96349.22;;;6.04;66.53
45129;BME280;35512;56.312;101.728;2023-02-10T04:57:32;96339.47;;;5.87;66.75
45129;BME280;35512;56.312;101.728;2023-02-10T05:00:01;96379.56;;;5.96;67.26
45129;BME280;35512;56.312;101.728;2023-02-10T05:02:32;96360.38;;;5.93;67.54
45129;BME280;35512;56.312;101.728;2023-02-10T05:05:01;96343.50;;;5.35;67.65
45129;BME280;35512;56.312;101.728;2023-02-10T05:07:31;96374.66;;;5.52;68.64
45129;BME280;35512;56.312;101.728;2023-02-10T05:09:59;96366.66;;;5.64;68.18
45129;BME280;35512;56.312;101.728;2023-02-10T05:12:30;96379.50;;;5.58;68.24
45129;BME280;35512;56.312;101.728;2023-02-10T05:14:59;96376.22;;;5.86;69.16
45129;BME280;35512;56.312;101.728;2023-02-10T05:17:29;96361.50;;;4.41;66.73
45129;BME280;35512;56.312;101.728;2023-02-10T05:19:58;96373.19;;;3.24;69.74
45129;BME280;35512;56.312;101.728;2023-02-10T05:22:29;96373.66;;;3.91;71.20
45129;BME280;35512;56.312;101.728;2023-02-10T05:24:58;96393.06;;;3.53;68.89
45129;BME280;35512;56.312;101.728;2023-02-10T05:27:27;96368.41;;;2.33;68.81
45129;BME280;35512;56.312;101.728;2023-02-10T05:29:56;96396.19;;;0.65;69.94
45129;BME280;35512;56.312;101.728;2023-02-10T05:32:25;96387.81;;;-0.73;70.37
45129;BME280;35512;56.312;101.728;2023-02-10T05:34:53;96370.53;;;-0.23;73.43
45129;BME280;35512;56.312;101.728;2023-02-10T05:37:22;96366.38;;;-0.57;71.17
45129;BME280;35512;56.312;101.728;2023-02-10T05:39:51;96387.84;;;-0.59;72.81
45129;BME280;35512;56.312;101.728;2023-02-10T05:42:20;96369.88;;;0.77;74.19
45129;BME280;35512;56.312;101.728;2023-02-10T05:44:51;96400.47;;;2.19;72.55
45129;BME280;35512;56.312;101.728;2023-02-10T05:47:20;96385.91;;;2.92;72.03
45129;BME280;35512;56.312;101.728;2023-02-10T05:49:49;96371.44;;;3.28;70.92
45129;BME280;35512;56.312;101.728;2023-02-10T05:52:18;96400.03;;;4.01;70.65
45129;BME280;35512;56.312;101.728;2023-02-10T05:54:47;96382.81;;;4.50;71.14
45129;BME280;35512;56.312;101.728;2023-02-10T05:57:16;96379.31;;;5.42;71.85
45129;BME280;35512;56.312;101.728;2023-02-10T05:59:45;96404.75;;;6.16;70.55
45129;BME280;35512;56.312;101.728;2023-02-10T06:02:15;96387.44;;;6.01;70.30
45129;BME280;35512;56.312;101.728;2023-02-10T06:04:44;96415.50;;;6.16;70.16
45129;BME280;35512;56.312;101.728;2023-02-10T06:07:14;96395.22;;;5.93;70.20
45129;BME280;35512;56.312;101.728;2023-02-10T06:09:43;96404.19;;;5.76;69.97
45129;BME280;35512;56.312;101.728;2023-02-10T06:12:14;96403.75;;;5.74;69.99
45129;BME280;35512;56.312;101.728;2023-02-10T06:14:43;96410.00;;;5.45;69.20
45129;BME280;35512;56.312;101.728;2023-02-10T06:17:12;96365.03;;;5.38;71.03
45129;BME280;35512;56.312;101.728;2023-02-10T06:19:41;96393.25;;;5.36;69.72
45129;BME280;35512;56.312;101.728;2023-02-10T06:22:10;96386.84;;;5.62;71.08
45129;BME280;35512;56.312;101.728;2023-02-10T06:24:39;96412.47;;;6.17;71.23
45129;BME280;35512;56.312;101.728;2023-02-10T06:27:11;96393.50;;;6.47;71.26
45129;BME280;35512;56.312;101.728;2023-02-10T06:29:40;96383.59;;;6.88;71.73
45129;BME280;35512;56.312;101.728;2023-02-10T06:32:09;96393.50;;;7.13;70.81
45129;BME280;35512;56.312;101.728;2023-02-10T06:34:38;96408.31;;;7.06;70.59
45129;BME280;35512;56.312;101.728;2023-02-10T06:37:08;96389.31;;;6.74;69.61
45129;BME280;35512;56.312;101.728;2023-02-10T06:39:37;96420.88;;;6.53;69.76
45129;BME280;35512;56.312;101.728;2023-02-10T06:42:06;96394.50;;;5.72;68.75
45129;BME280;35512;56.312;101.728;2023-02-10T06:44:35;96401.69;;;5.04;69.52
45129;BME280;35512;56.312;101.728;2023-02-10T06:47:05;96398.22;;;4.83;70.57
45129;BME280;35512;56.312;101.728;2023-02-10T06:49:34;96376.75;;;5.13;71.71
45129;BME280;35512;56.312;101.728;2023-02-10T06:52:04;96418.34;;;5.98;71.96
45129;BME280;35512;56.312;101.728;2023-02-10T06:54:44;96423.41;;;6.12;71.05
45129;BME280;35512;56.312;101.728;2023-02-10T06:57:13;96422.72;;;5.69;70.24
45129;BME280;35512;56.312;101.728;2023-02-10T06:59:42;96406.41;;;5.07;70.05
45129;BME280;35512;56.312;101.728;2023-02-10T07:02:12;96430.00;;;4.25;69.49
45129;BME280;35512;56.312;101.728;2023-02-10T07:04:42;96411.47;;;3.11;70.41
45129;BME280;35512;56.312;101.728;2023-02-10T07:07:11;96424.50;;;2.28;71.30
45129;BME280;35512;56.312;101.728;2023-02-10T07:09:39;96427.72;;;1.31;72.19
45129;BME280;35512;56.312;101.728;2023-02-10T07:12:09;96412.50;;;-0.39;71.97
45129;BME280;35512;56.312;101.728;2023-02-10T07:14:38;96428.44;;;-1.78;72.75
45129;BME280;35512;56.312;101.728;2023-02-10T07:17:07;96407.75;;;-3.28;72.72
45129;BME280;35512;56.312;101.728;2023-02-10T07:19:36;96404.22;;;-4.64;73.39
45129;BME280;35512;56.312;101.728;2023-02-10T07:22:05;96426.16;;;-5.73;73.02
45129;BME280;35512;56.312;101.728;2023-02-10T07:24:36;96436.91;;;-6.71;74.13
45129;BME280;35512;56.312;101.728;2023-02-10T07:27:05;96420.81;;;-7.39;75.22
45129;BME280;35512;56.312;101.728;2023-02-10T07:29:34;96409.59;;;-7.84;75.63
45129;BME280;35512;56.312;101.728;2023-02-10T07:32:03;96415.31;;;-8.09;76.20
45129;BME280;35512;56.312;101.728;2023-02-10T07:34:32;96415.31;;;-8.32;77.04
45129;BME280;35512;56.312;101.728;2023-02-10T07:37:02;96444.13;;;-8.32;77.42
45129;BME280;35512;56.312;101.728;2023-02-10T07:39:31;96440.03;;;-8.61;77.04
45129;BME280;35512;56.312;101.728;2023-02-10T07:42:00;96416.53;;;-8.90;77.89
45129;BME280;35512;56.312;101.728;2023-02-10T07:44:45;96433.38;;;-9.03;77.62
45129;BME280;35512;56.312;101.728;2023-02-10T07:47:14;96459.75;;;-9.05;77.99
45129;BME280;35512;56.312;101.728;2023-02-10T07:49:43;96445.28;;;-9.24;78.35
45129;BME280;35512;56.312;101.728;2023-02-10T07:52:13;96461.47;;;-9.27;77.67
45129;BME280;35512;56.312;101.728;2023-02-10T07:54:42;96456.25;;;-9.68;77.35
45129;BME280;35512;56.312;101.728;2023-02-10T07:57:11;96452.94;;;-9.92;77.43
45129;BME280;35512;56.312;101.728;2023-02-10T07:59:40;96459.31;;;-10.12;77.48
45129;BME280;35512;56.312;101.728;2023-02-10T08:02:10;96475.66;;;-10.16;77.42
45129;BME280;35512;56.312;101.728;2023-02-10T08:04:40;96432.34;;;-10.53;77.86
45129;BME280;35512;56.312;101.728;2023-02-10T08:07:09;96453.34;;;-10.48;77.74
45129;BME280;35512;56.312;101.728;2023-02-10T08:09:39;96466.75;;;-9.39;79.75
45129;BME280;35512;56.312;101.728;2023-02-10T08:12:08;96468.69;;;-7.27;81.53
45129;BME280;35512;56.312;101.728;2023-02-10T08:14:37;96473.38;;;-5.36;80.77
45129;BME280;35512;56.312;101.728;2023-02-10T08:17:06;96479.56;;;-3.91;80.34
45129;BME280;35512;56.312;101.728;2023-02-10T08:19:35;96477.13;;;-2.62;79.79
45129;BME280;35512;56.312;101.728;2023-02-10T08:22:05;96476.34;;;-1.74;78.35
45129;BME280;35512;56.312;101.728;2023-02-10T08:24:33;96468.69;;;-1.32;76.90
45129;BME280;35512;56.312;101.728;2023-02-10T08:27:04;96463.34;;;-1.27;75.82
45129;BME280;35512;56.312;101.728;2023-02-10T08:29:34;96448.03;;;-1.30;75.57
45129;BME280;35512;56.312;101.728;2023-02-10T08:32:03;96447.63;;;-1.18;75.81
45129;BME280;35512;56.312;101.728;2023-02-10T08:34:32;96461.00;;;-1.10;75.54
45129;BME280;35512;56.312;101.728;2023-02-10T08:37:02;96476.28;;;-1.02;75.81
45129;BME280;35512;56.312;101.728;2023-02-10T08:39:31;96492.53;;;-0.70;76.23
45129;BME280;35512;56.312;101.728;2023-02-10T08:42:00;96490.66;;;-0.70;76.04
45129;BME280;35512;56.312;101.728;2023-02-10T08:44:29;96493.25;;;-0.83;75.14
45129;BME280;35512;56.312;101.728;2023-02-10T08:46:57;96495.72;;;-0.87;75.99
45129;BME280;35512;56.312;101.728;2023-02-10T08:49:26;96489.72;;;-1.17;75.24
45129;BME280;35512;56.312;101.728;2023-02-10T08:51:56;96483.88;;;-1.38;75.67
45129;BME280;35512;56.312;101.728;2023-02-10T08:54:24;96476.56;;;-1.46;75.93
45129;BME280;35512;56.312;101.728;2023-02-10T08:56:54;96503.91;;;-1.51;75.83
45129;BME280;35512;56.312;101.728;2023-02-10T08:59:23;96500.13;;;-1.69;76.44
45129;BME280;35512;56.312;101.728;2023-02-10T09:01:53;96483.88;;;-1.87;76.10
45129;BME280;35512;56.312;101.728;2023-02-10T09:04:23;96483.31;;;-2.13;76.12
45129;BME280;35512;56.312;101.728;2023-02-10T09:06:52;96504.97;;;-2.40;75.98
45129;BME280;35512;56.312;101.728;2023-02-10T09:09:22;96492.50;;;-2.74;75.82
45129;BME280;35512;56.312;101.728;2023-02-10T09:11:53;96508.56;;;-3.05;75.45
45129;BME280;35512;56.312;101.728;2023-02-10T09:14:23;96517.44;;;-3.46;75.56
45129;BME280;35512;56.312;101.728;2023-02-10T09:16:51;96499.06;;;-3.97;75.47
45129;BME280;35512;56.312;101.728;2023-02-10T09:19:20;96525.22;;;-4.32;75.07
45129;BME280;35512;56.312;101.728;2023-02-10T09:21:51;96499.03;;;-4.95;75.11
45129;BME280;35512;56.312;101.728;2023-02-10T09:24:20;96528.66;;;-5.36;75.66
45129;BME280;35512;56.312;101.728;2023-02-10T09:26:49;96525.22;;;-6.00;75.86
45129;BME280;35512;56.312;101.728;2023-02-10T09:29:19;96528.00;;;-6.76;76.12
45129;BME280;35512;56.312;101.728;2023-02-10T09:31:47;96529.41;;;-7.62;76.66
45129;BME280;35512;56.312;101.728;2023-02-10T09:34:17;96540.63;;;-8.40;77.45
45129;BME280;35512;56.312;101.728;2023-02-10T09:36:45;96506.50;;;-9.25;78.44
45129;BME280;35512;56.312;101.728;2023-02-10T09:39:14;96505.84;;;-9.73;78.71
45129;BME280;35512;56.312;101.728;2023-02-10T09:45:09;96541.50;;;-10.50;79.49
45129;BME280;35512;56.312;101.728;2023-02-10T09:47:50;96548.16;;;-10.78;79.55
45129;BME280;35512;56.312;101.728;2023-02-10T10:00:49;96561.91;;;-12.05;79.97
45129;BME280;35512;56.312;101.728;2023-02-10T10:03:27;96574.69;;;-12.22;80.02
45129;BME280;35512;56.312;101.728;2023-02-10T10:06:29;96580.81;;;-12.42;80.63
45129;BME280;35512;56.312;101.728;2023-02-10T10:11:56;96597.50;;;-12.82;80.03
45129;BME280;35512;56.312;101.728;2023-02-10T10:14:27;96605.81;;;-13.05;79.79
45129;BME280;35512;56.312;101.728;2023-02-10T10:20:28;96611.41;;;-13.47;80.34
45129;BME280;35512;56.312;101.728;2023-02-10T10:29:01;96618.28;;;-13.72;80.66
45129;BME280;35512;56.312;101.728;2023-02-10T10:31:41;96624.88;;;-13.77;80.34
45129;BME280;35512;56.312;101.728;2023-02-10T10:34:16;96624.88;;;-13.77;80.96
45129;BME280;35512;56.312;101.728;2023-02-10T10:36:48;96631.28;;;-13.79;80.91
45129;BME280;35512;56.312;101.728;2023-02-10T10:41:54;96638.06;;;-13.98;80.10
45129;BME280;35512;56.312;101.728;2023-02-10T10:44:26;96646.06;;;-14.06;80.17
45129;BME280;35512;56.312;101.728;2023-02-10T10:47:13;96657.03;;;-14.11;80.11
45129;BME280;35512;56.312;101.728;2023-02-10T10:49:43;96664.22;;;-14.20;80.21
45129;BME280;35512;56.312;101.728;2023-02-10T10:52:32;96664.63;;;-14.30;80.10
45129;BME280;35512;56.312;101.728;2023-02-10T10:55:24;96667.41;;;-14.45;79.85
45129;BME280;35512;56.312;101.728;2023-02-10T10:57:55;96652.63;;;-14.64;80.10
45129;BME280;35512;56.312;101.728;2023-02-10T11:00:27;96678.38;;;-14.63;80.18
45129;BME280;35512;56.312;101.728;2023-02-10T11:03:03;96679.75;;;-14.67;79.74
45129;BME280;35512;56.312;101.728;2023-02-10T11:05:36;96680.72;;;-14.74;79.78
45129;BME280;35512;56.312;101.728;2023-02-10T11:08:06;96687.53;;;-14.73;79.95
45129;BME280;35512;56.312;101.728;2023-02-10T11:10:38;96687.50;;;-14.80;79.89
45129;BME280;35512;56.312;101.728;2023-02-10T11:13:26;96680.09;;;-14.90;79.87
45129;BME280;35512;56.312;101.728;2023-02-10T11:16:08;96697.22;;;-14.89;80.02
45129;BME280;35512;56.312;101.728;2023-02-10T11:18:38;96693.19;;;-14.98;79.52
45129;BME280;35512;56.312;101.728;2023-02-10T11:21:09;96693.00;;;-15.03;79.39
45129;BME280;35512;56.312;101.728;2023-02-10T11:23:51;96710.13;;;-15.02;79.61
45129;BME280;35512;56.312;101.728;2023-02-10T11:26:26;96708.13;;;-15.07;79.53
45129;BME280;35512;56.312;101.728;2023-02-10T11:28:56;96677.13;;;-15.28;79.37
45129;BME280;35512;56.312;101.728;2023-02-10T11:31:30;96709.50;;;-15.11;79.43
45129;BME280;35512;56.312;101.728;2023-02-10T11:34:04;96713.66;;;-15.17;79.31
45129;BME280;35512;56.312;101.728;2023-02-10T11:36:38;96712.81;;;-15.24;79.31
45129;BME280;35512;56.312;101.728;2023-02-10T11:39:30;96712.38;;;-15.34;79.07
45129;BME280;35512;56.312;101.728;2023-02-10T11:42:19;96715.75;;;-15.34;79.33
45129;BME280;35512;56.312;101.728;2023-02-10T11:47:39;96728.72;;;-15.27;79.43
45129;BME280;35512;56.312;101.728;2023-02-10T11:50:27;96731.72;;;-15.30;79.53
45129;BME280;35512;56.312;101.728;2023-02-10T11:52:57;96738.69;;;-15.31;79.06
45129;BME280;35512;56.312;101.728;2023-02-10T11:55:45;96739.69;;;-15.32;79.35
45129;BME280;35512;56.312;101.728;2023-02-10T12:12:58;96762.16;;;-15.39;79.08
45129;BME280;35512;56.312;101.728;2023-02-10T12:15:44;96766.31;;;-15.38;79.19
45129;BME280;35512;56.312;101.728;2023-02-10T12:24:31;96747.34;;;-15.45;79.28
45129;BME280;35512;56.312;101.728;2023-02-10T12:33:05;96774.09;;;-15.38;78.99
45129;BME280;35512;56.312;101.728;2023-02-10T12:35:53;96772.31;;;-15.37;79.27
45129;BME280;35512;56.312;101.728;2023-02-10T12:49:49;96793.59;;;-15.42;78.96
45129;BME280;35512;56.312;101.728;2023-02-10T12:52:29;96790.88;;;-15.62;78.84
45129;BME280;35512;56.312;101.728;2023-02-10T12:55:18;96795.47;;;-15.86;78.14
45129;BME280;35512;56.312;101.728;2023-02-10T12:58:13;96803.22;;;-16.07;78.05
45129;BME280;35512;56.312;101.728;2023-02-10T13:00:46;96800.66;;;-16.22;77.99
45129;BME280;35512;56.312;101.728;2023-02-10T13:03:26;96789.09;;;-16.26;78.33
45129;BME280;35512;56.312;101.728;2023-02-10T13:05:58;96792.78;;;-16.36;78.06
45129;BME280;35512;56.312;101.728;2023-02-10T13:08:57;96786.91;;;-16.44;78.19
45129;BME280;35512;56.312;101.728;2023-02-10T13:11:40;96786.91;;;-16.44;78.10
45129;BME280;35512;56.312;101.728;2023-02-10T13:14:19;96793.06;;;-16.45;78.05
45129;BME280;35512;56.312;101.728;2023-02-10T13:16:56;96793.16;;;-16.54;77.63
45129;BME280;35512;56.312;101.728;2023-02-10T13:19:50;96796.50;;;-16.60;78.07
45129;BME280;35512;56.312;101.728;2023-02-10T13:36:17;96785.19;;;-16.37;78.08
45129;BME280;35512;56.312;101.728;2023-02-10T13:38:49;96794.75;;;-16.38;78.42
45129;BME280;35512;56.312;101.728;2023-02-10T13:41:29;96803.75;;;-16.34;78.09
45129;BME280;35512;56.312;101.728;2023-02-10T13:44:29;96806.25;;;-16.40;78.22
45129;BME280;35512;56.312;101.728;2023-02-10T13:49:28;96824.44;;;-16.34;78.22
45129;BME280;35512;56.312;101.728;2023-02-10T13:52:07;96817.84;;;-16.36;78.00
45129;BME280;35512;56.312;101.728;2023-02-10T13:54:53;96810.44;;;-16.39;77.99
45129;BME280;35512;56.312;101.728;2023-02-10T13:57:29;96813.03;;;-16.39;78.05
45129;BME280;35512;56.312;101.728;2023-02-10T14:02:44;96816.00;;;-16.42;78.24
45129;BME280;35512;56.312;101.728;2023-02-10T14:05:22;96824.81;;;-16.37;78.28
45129;BME280;35512;56.312;101.728;2023-02-10T14:07:52;96822.59;;;-16.40;78.44
45129;BME280;35512;56.312;101.728;2023-02-10T14:15:30;96834.84;;;-16.27;78.00
45129;BME280;35512;56.312;101.728;2023-02-10T14:18:02;96841.63;;;-16.26;78.42
45129;BME280;35512;56.312;101.728;2023-02-10T14:20:36;96833.81;;;-16.33;78.13
45129;BME280;35512;56.312;101.728;2023-02-10T14:23:06;96836.75;;;-16.36;78.00
45129;BME280;35512;56.312;101.728;2023-02-10T14:25:40;96838.44;;;-16.43;77.72
45129;BME280;35512;56.312;101.728;2023-02-10T14:28:25;96840.34;;;-16.52;77.88
45129;BME280;35512;56.312;101.728;2023-02-10T14:31:01;96840.97;;;-16.64;77.50
45129;BME280;35512;56.312;101.728;2023-02-10T14:33:32;96842.28;;;-16.69;77.72
45129;BME280;35512;56.312;101.728;2023-02-10T14:36:06;96853.19;;;-16.73;77.59
45129;BME280;35512;56.312;101.728;2023-02-10T14:38:44;96834.63;;;-16.77;77.66
45129;BME280;35512;56.312;101.728;2023-02-10T14:41:15;96843.63;;;-16.73;77.79
45129;BME280;35512;56.312;101.728;2023-02-10T14:43:49;96848.28;;;-16.68;77.92
45129;BME280;35512;56.312;101.728;2023-02-10T14:46:22;96850.50;;;-16.65;77.92
45129;BME280;35512;56.312;101.728;2023-02-10T14:48:59;96848.56;;;-16.63;78.12
45129;BME280;35512;56.312;101.728;2023-02-10T14:51:30;96851.28;;;-16.64;77.35
45129;BME280;35512;56.312;101.728;2023-02-10T14:54:19;96854.88;;;-16.65;77.80
45129;BME280;35512;56.312;101.728;2023-02-10T14:56:53;96855.06;;;-16.67;77.74
45129;BME280;35512;56.312;101.728;2023-02-10T14:59:31;96860.25;;;-16.67;77.86